»·PEaware :: N5435W L88-KSBP

N5435W :: L88-KSBP

FLIGHT INFORMATION

Flight Status: Arrived
Operator: Privately registered:
United States
More flights under this callsign
Pilot: Anonymous 23155 (23155)
Aircraft: PIPER PA-28R-201 ARROW
(P28R)
More flights by this aircraft type
Origin: L88 New Cuyama
United States
Destination: KSBP San Luis Co Regl
United States
More flights between these airports :: More routes between these airports
Route: VFR NAVIGATION W/ GPS AS BACKUP
File this flight plan on PilotEdge
Remarks: This is for CAT 2. I'm a rookie to radio communication, sorry!
Altitude:
(Current/Filed)
2,500ft
Speed:
(Current/Filed)
115kts
Departed: 26-Jan-19 08:49 PM
Arrived: 26-Jan-19 09:31 PM
Distance/Time
Traveled:
50nm/0:42
Distance/Time
To Go:
Arrived

Flight Plot

Page will automatically refresh every two minutes.

Flight plan parsing failed; only flown route is shown


Map Options




Map Legend


Flown Route
Filed Route
Departure Airport
Arrival Airport
Navaid (VOR, NDB)
Fix

Horizontal Profiles

Position Reports

Time Latitude Longitude Heading Altitude Ground
Speed
26-Jan-19 20:38 34.942860 -119.690283 204 2156ft 0kts
26-Jan-19 20:39 34.942860 -119.690283 204 2156ft 0kts
26-Jan-19 20:41 34.942860 -119.690283 204 2156ft 0kts
26-Jan-19 20:42 34.942844 -119.690292 203 2156ft 0kts
26-Jan-19 20:43 34.942844 -119.690292 203 2156ft 0kts
26-Jan-19 20:44 34.942844 -119.690292 203 2156ft 0kts
26-Jan-19 20:45 34.942782 -119.690570 283 2155ft 0kts
26-Jan-19 20:46 34.942796 -119.690636 284 2155ft 0kts
26-Jan-19 20:47 34.942796 -119.690637 284 2155ft 0kts
26-Jan-19 20:48 34.942832 -119.691112 238 2154ft 13kts
26-Jan-19 20:49 34.940078 -119.685870 116 2175ft 81kts
26-Jan-19 20:50 34.933121 -119.664608 108 3040ft 65kts
26-Jan-19 20:51 34.917206 -119.656815 197 3352ft 86kts
26-Jan-19 20:52 34.917309 -119.680120 302 3162ft 86kts
26-Jan-19 20:53 34.930239 -119.702898 305 2961ft 79kts
26-Jan-19 20:54 34.943998 -119.717588 55 2711ft 81kts
26-Jan-19 20:55 34.943213 -119.693430 116 2221ft 69kts
26-Jan-19 20:56 34.935511 -119.671758 106 2610ft 77kts
26-Jan-19 20:57 34.932006 -119.645687 42 3207ft 89kts
26-Jan-19 20:58 34.951469 -119.660569 298 3152ft 101kts
26-Jan-19 20:59 34.964337 -119.688803 296 2866ft 90kts
26-Jan-19 20:59 34.963231 -119.710112 211 2731ft 80kts
26-Jan-19 21:00 34.946557 -119.700054 121 2503ft 71kts
26-Jan-19 21:01 34.938177 -119.681085 114 2284ft 79kts
26-Jan-19 21:02 34.934838 -119.668873 101 2647ft 79kts
26-Jan-19 21:03 34.931949 -119.642625 70 3329ft 86kts
26-Jan-19 21:05 34.950707 -119.658179 281 3784ft 97kts
26-Jan-19 21:05 34.953237 -119.683403 286 4511ft 99kts
26-Jan-19 21:06 34.959181 -119.718109 286 5231ft 109kts
26-Jan-19 21:07 34.960132 -119.756166 281 5820ft 114kts
26-Jan-19 21:08 34.971296 -119.795680 291 5989ft 132kts
26-Jan-19 21:09 34.985493 -119.837846 291 5995ft 135kts
26-Jan-19 21:10 34.999932 -119.880445 292 5987ft 135kts
26-Jan-19 21:11 35.014401 -119.923033 292 5981ft 135kts
26-Jan-19 21:12 35.027049 -119.966573 283 5977ft 136kts
26-Jan-19 21:13 35.036427 -120.011160 281 5972ft 136kts
26-Jan-19 21:14 35.045226 -120.055842 296 5962ft 135kts
26-Jan-19 21:15 35.058498 -120.098915 293 5947ft 136kts
26-Jan-19 21:16 35.072054 -120.141532 285 5925ft 136kts
26-Jan-19 21:17 35.084980 -120.184375 289 6018ft 132kts
26-Jan-19 21:18 35.098963 -120.227528 292 5929ft 136kts
26-Jan-19 21:19 35.113719 -120.270257 292 5921ft 136kts
26-Jan-19 21:20 35.123526 -120.314642 274 5910ft 136kts
26-Jan-19 21:21 35.120938 -120.360298 266 5547ft 133kts
26-Jan-19 21:22 35.119717 -120.405712 272 5015ft 133kts
26-Jan-19 21:23 35.128800 -120.449143 293 4522ft 132kts
26-Jan-19 21:24 35.147712 -120.487558 303 4064ft 131kts
26-Jan-19 21:25 35.167954 -120.524029 304 3278ft 128kts
26-Jan-19 21:26 35.187878 -120.559689 305 2110ft 129kts
26-Jan-19 21:27 35.206019 -120.589741 308 1253ft 93kts
26-Jan-19 21:28 35.219505 -120.611544 307 792ft 77kts
26-Jan-19 21:29 35.233306 -120.633978 308 264ft 63kts
26-Jan-19 21:30 35.237243 -120.639954 3 215ft 0kts
26-Jan-19 21:31 35.237243 -120.639954 3 215ft 0kts
26-Jan-19 21:33 35.238915 -120.641326 304 215ft 0kts
26-Jan-19 21:34 35.238915 -120.641326 304 215ft 0kts
26-Jan-19 21:35 35.238159 -120.639667 195 215ft 0kts
26-Jan-19 21:36 35.238158 -120.639667 195 215ft 0kts
26-Jan-19 21:37 35.238158 -120.639667 195 215ft 0kts
26-Jan-19 21:38 35.238158 -120.639667 195 215ft 0kts
26-Jan-19 21:39 35.238158 -120.639667 195 215ft 0kts
26-Jan-19 21:40 35.238158 -120.639667 195 215ft 0kts
26-Jan-19 21:41 35.238158 -120.639667 195 215ft 0kts
26-Jan-19 21:42 35.238158 -120.639667 195 215ft 0kts
26-Jan-19 21:43 35.238159 -120.639667 195 215ft 0kts
26-Jan-19 21:44 35.238159 -120.639667 195 215ft 0kts

Navigation Log

Ident Type
Flight plan parsing failed, navigation log unavailable